createdAt,value
2023-01-13T00:01:16.717Z,59.55
2023-01-13T00:03:43.576Z,59.71
2023-01-13T00:06:13.740Z,59.64
2023-01-13T00:08:40.363Z,59.68
2023-01-13T00:11:06.702Z,59.63
2023-01-13T00:13:35.208Z,59.67
2023-01-13T00:16:07.402Z,59.96
2023-01-13T00:18:34.126Z,59.70
2023-01-13T00:21:03.590Z,59.83
2023-01-13T00:23:31.609Z,59.69
2023-01-13T00:26:00.179Z,60.02
2023-01-13T00:28:26.537Z,60.00
2023-01-13T00:30:52.944Z,59.83
2023-01-13T00:33:19.517Z,59.88
2023-01-13T00:35:56.308Z,59.80
2023-01-13T00:38:22.684Z,60.08
2023-01-13T00:40:58.296Z,59.89
2023-01-13T00:43:25.669Z,59.94
2023-01-13T00:45:52.546Z,59.98
2023-01-13T00:48:20.573Z,60.16
2023-01-13T00:50:54.147Z,60.30
2023-01-13T00:53:20.560Z,60.08
2023-01-13T00:55:46.892Z,59.40
2023-01-13T00:58:13.256Z,60.28
2023-01-13T01:00:39.631Z,59.91
2023-01-13T01:03:12.113Z,60.09
2023-01-13T01:05:39.599Z,60.40
2023-01-13T01:08:05.985Z,60.30
2023-01-13T01:10:32.591Z,60.05
2023-01-13T01:12:58.991Z,60.10
2023-01-13T01:15:25.511Z,60.12
2023-01-13T01:17:52.135Z,60.34
2023-01-13T01:20:18.566Z,60.34
2023-01-13T01:22:44.961Z,60.32
2023-01-13T01:25:11.349Z,60.35
2023-01-13T01:27:37.751Z,60.24
2023-01-13T01:30:04.560Z,60.42
2023-01-13T01:32:33.266Z,60.37
2023-01-13T01:34:59.623Z,60.38
2023-01-13T01:37:25.983Z,60.99
2023-01-13T01:39:52.342Z,60.45
2023-01-13T01:42:37.591Z,60.50
2023-01-13T01:45:25.200Z,60.25
2023-01-13T01:47:57.384Z,60.49
2023-01-13T01:50:24.317Z,60.64
2023-01-13T01:52:57.390Z,60.73
2023-01-13T01:55:29.075Z,60.52
2023-01-13T01:58:21.307Z,60.38
2023-01-13T02:00:48.387Z,60.49
2023-01-13T02:03:17.765Z,60.37
2023-01-13T02:05:44.205Z,60.61
2023-01-13T02:08:13.031Z,60.59
2023-01-13T02:10:42.688Z,60.73
2023-01-13T02:13:13.060Z,60.43
2023-01-13T02:16:04.214Z,60.61
2023-01-13T02:18:33.459Z,60.69
2023-01-13T02:21:27.704Z,60.72
2023-01-13T02:24:28.163Z,60.80
2023-01-13T02:27:25.500Z,60.96
2023-01-13T02:30:29.358Z,60.92
2023-01-13T02:33:07.849Z,60.89
2023-01-13T02:35:52.051Z,60.86
2023-01-13T02:38:28.745Z,61.20
2023-01-13T02:41:27.318Z,61.15
2023-01-13T02:44:07.726Z,61.43
2023-01-13T02:46:46.677Z,61.44
2023-01-13T02:49:21.414Z,61.30
2023-01-13T02:51:50.569Z,61.50
2023-01-13T02:54:24.345Z,61.40
2023-01-13T02:56:51.122Z,61.77
2023-01-13T02:59:19.555Z,61.35
2023-01-13T03:01:47.705Z,61.28
2023-01-13T03:04:35.319Z,61.33
2023-01-13T03:07:43.047Z,61.43
2023-01-13T03:10:31.214Z,61.47
2023-01-13T03:13:24.499Z,61.63
2023-01-13T03:16:02.305Z,61.57
2023-01-13T03:18:45.494Z,61.56
2023-01-13T03:21:34.329Z,61.62
2023-01-13T03:24:07.142Z,61.68
2023-01-13T03:26:46.081Z,61.59
2023-01-13T03:29:19.307Z,61.59
2023-01-13T03:31:58.561Z,61.74
2023-01-13T03:34:33.076Z,61.65
2023-01-13T03:37:03.832Z,61.39
2023-01-13T03:39:34.469Z,61.71
2023-01-13T03:42:07.800Z,61.95
2023-01-13T03:44:58.059Z,61.73
2023-01-13T03:47:33.230Z,61.88
2023-01-13T03:50:09.173Z,61.79
2023-01-13T03:52:45.808Z,61.69
2023-01-13T03:55:16.083Z,61.81
2023-01-13T03:57:59.661Z,61.55
2023-01-13T04:00:32.240Z,61.61
2023-01-13T04:03:11.677Z,61.52
2023-01-13T04:05:47.096Z,61.65
2023-01-13T04:08:23.860Z,61.95
2023-01-13T04:11:03.583Z,61.73
2023-01-13T04:13:35.684Z,61.42
2023-01-13T04:16:02.381Z,61.67
2023-01-13T04:18:30.718Z,61.71
2023-01-13T04:21:01.011Z,61.55
2023-01-13T04:23:28.615Z,61.57
2023-01-13T04:25:55.548Z,61.56
2023-01-13T04:28:22.817Z,61.44
2023-01-13T04:30:49.327Z,61.37
2023-01-13T04:33:17.738Z,61.39
2023-01-13T04:35:45.439Z,61.43
2023-01-13T04:38:17.217Z,61.17
2023-01-13T04:40:44.229Z,61.30
2023-01-13T04:43:10.642Z,61.15
2023-01-13T04:45:37.224Z,61.43
2023-01-13T04:48:03.869Z,61.28
2023-01-13T04:50:30.335Z,61.32
2023-01-13T04:52:56.813Z,61.23
2023-01-13T04:55:24.294Z,61.25
2023-01-13T04:57:50.681Z,61.50
2023-01-13T05:00:19.340Z,61.54
2023-01-13T05:02:45.861Z,61.48
2023-01-13T05:05:12.412Z,61.32
2023-01-13T05:07:38.853Z,61.14
2023-01-13T05:10:05.758Z,61.35
2023-01-13T05:12:51.368Z,61.11
2023-01-13T05:15:36.295Z,60.96
2023-01-13T05:18:02.944Z,61.27
2023-01-13T05:20:29.349Z,61.39
2023-01-13T05:23:14.476Z,60.91
2023-01-13T05:25:44.384Z,61.25
2023-01-13T05:28:11.262Z,61.11
2023-01-13T05:30:42.508Z,61.41
2023-01-13T05:33:10.483Z,61.21
2023-01-13T05:35:45.584Z,61.13
2023-01-13T05:38:13.255Z,61.13
2023-01-13T05:40:59.637Z,61.16
2023-01-13T05:43:27.050Z,61.48
2023-01-13T05:46:02.327Z,61.17
2023-01-13T05:48:37.442Z,61.26
2023-01-13T05:51:05.985Z,61.23
2023-01-13T05:53:33.168Z,61.48
2023-01-13T05:55:59.712Z,61.28
2023-01-13T05:58:27.720Z,61.17
2023-01-13T06:01:00.242Z,61.15
2023-01-13T06:03:27.130Z,61.17
2023-01-13T06:05:58.665Z,61.30
2023-01-13T06:08:26.000Z,61.34
2023-01-13T06:10:53.748Z,61.10
2023-01-13T06:13:20.370Z,61.41
2023-01-13T06:15:46.823Z,61.50
2023-01-13T06:18:13.356Z,61.29
2023-01-13T06:20:39.800Z,61.33
2023-01-13T06:23:10.000Z,61.24
2023-01-13T06:25:46.521Z,61.26
2023-01-13T06:28:12.817Z,61.65
2023-01-13T06:30:45.299Z,61.53
2023-01-13T06:33:14.775Z,61.65
2023-01-13T06:35:45.573Z,61.41
2023-01-13T06:38:16.137Z,61.31
2023-01-13T06:40:43.244Z,61.55
2023-01-13T06:43:16.946Z,61.18
2023-01-13T06:45:46.086Z,61.35
2023-01-13T06:48:12.871Z,61.07
2023-01-13T06:50:39.388Z,61.01
2023-01-13T06:53:05.928Z,61.18
2023-01-13T06:55:32.387Z,61.53
2023-01-13T06:57:58.967Z,61.27
2023-01-13T07:00:26.793Z,61.29
2023-01-13T07:02:54.094Z,61.20
2023-01-13T07:05:21.667Z,61.24
2023-01-13T07:07:48.129Z,61.12
2023-01-13T07:10:22.430Z,61.22
2023-01-13T07:13:08.387Z,61.25
2023-01-13T07:15:35.355Z,61.05
2023-01-13T07:18:02.413Z,60.97
2023-01-13T07:20:30.496Z,61.07
2023-01-13T07:22:57.761Z,61.14
2023-01-13T07:25:24.327Z,60.71
2023-01-13T07:27:50.706Z,60.97
2023-01-13T07:30:17.476Z,60.87
2023-01-13T07:32:43.822Z,60.87
2023-01-13T07:35:10.317Z,60.99
2023-01-13T07:37:39.389Z,60.91
2023-01-13T07:40:06.745Z,61.25
2023-01-13T07:42:51.936Z,61.11
2023-01-13T07:45:18.345Z,61.19
2023-01-13T07:47:44.720Z,60.73
2023-01-13T07:50:11.438Z,61.10
2023-01-13T07:52:37.829Z,60.93
2023-01-13T07:55:04.436Z,61.04
2023-01-13T07:57:30.831Z,60.87
2023-01-13T07:59:57.183Z,61.08
2023-01-13T08:02:23.802Z,61.09
2023-01-13T08:04:50.227Z,60.77
2023-01-13T08:07:16.598Z,60.74
2023-01-13T08:09:43.001Z,60.39
2023-01-13T08:12:27.838Z,60.47
2023-01-13T08:14:54.579Z,60.55
2023-01-13T08:17:21.406Z,60.27
2023-01-13T08:19:47.916Z,60.08
2023-01-13T08:22:14.373Z,60.10
2023-01-13T08:24:41.050Z,59.78
2023-01-13T08:27:07.628Z,59.89
2023-01-13T08:29:34.060Z,59.76
2023-01-13T08:32:00.487Z,59.93
2023-01-13T08:34:27.029Z,59.48
2023-01-13T08:36:53.385Z,59.48
2023-01-13T08:39:20.078Z,59.58
2023-01-13T08:41:55.637Z,59.28
2023-01-13T08:44:24.662Z,59.08
2023-01-13T08:46:52.798Z,59.17
2023-01-13T08:49:19.484Z,58.76
2023-01-13T08:51:46.034Z,59.11
2023-01-13T08:54:12.767Z,58.93
2023-01-13T08:56:41.126Z,58.95
2023-01-13T08:59:11.560Z,58.95
2023-01-13T09:01:39.334Z,58.68
2023-01-13T09:04:07.160Z,58.50
2023-01-13T09:06:33.625Z,58.21
2023-01-13T09:09:00.710Z,58.06
2023-01-13T09:11:50.913Z,58.22
2023-01-13T09:14:22.810Z,58.14
2023-01-13T09:16:49.593Z,57.73
2023-01-13T09:19:16.378Z,57.80
2023-01-13T09:21:42.834Z,57.89
2023-01-13T09:24:09.393Z,57.79
2023-01-13T09:26:37.948Z,57.74
2023-01-13T09:29:05.321Z,57.72
2023-01-13T09:31:35.024Z,57.55
2023-01-13T09:34:25.365Z,57.55
2023-01-13T09:36:52.210Z,57.53
2023-01-13T09:39:18.756Z,57.25
2023-01-13T09:42:08.531Z,57.34
2023-01-13T09:45:05.036Z,56.97
2023-01-13T09:48:02.473Z,56.88
2023-01-13T09:50:34.179Z,56.97
2023-01-13T09:53:01.212Z,57.00
2023-01-13T09:55:33.973Z,57.01
2023-01-13T09:58:13.183Z,56.80
2023-01-13T10:00:45.212Z,56.73
2023-01-13T10:03:29.707Z,56.38
2023-01-13T10:06:04.532Z,56.61
2023-01-13T10:08:40.737Z,56.33
2023-01-13T10:11:37.645Z,56.32
2023-01-13T10:14:15.527Z,56.19
2023-01-13T10:16:48.147Z,56.17
2023-01-13T10:19:33.727Z,55.90
2023-01-13T10:22:20.744Z,55.67
2023-01-13T10:25:18.340Z,55.87
2023-01-13T10:27:49.274Z,56.04
2023-01-13T10:30:31.146Z,56.02
2023-01-13T10:33:06.468Z,55.40
2023-01-13T10:35:57.911Z,55.02
2023-01-13T10:38:40.172Z,54.76
2023-01-13T10:41:23.212Z,54.77
2023-01-13T10:43:55.569Z,54.96
2023-01-13T10:46:21.981Z,54.94
2023-01-13T10:49:00.137Z,55.08
2023-01-13T10:51:43.593Z,55.00
2023-01-13T10:54:13.063Z,55.00
2023-01-13T10:56:45.003Z,55.06
2023-01-13T10:59:29.983Z,54.86
2023-01-13T11:01:59.385Z,55.04
2023-01-13T11:04:36.691Z,55.23
2023-01-13T11:07:06.214Z,55.13
2023-01-13T11:09:32.861Z,55.13
2023-01-13T11:12:00.269Z,55.03
2023-01-13T11:14:41.393Z,54.60
2023-01-13T11:17:42.109Z,54.68
2023-01-13T11:20:11.492Z,54.71
2023-01-13T11:22:45.455Z,54.21
2023-01-13T11:25:23.293Z,54.11
2023-01-13T11:28:00.655Z,54.31
2023-01-13T11:30:55.297Z,53.69
2023-01-13T11:33:35.009Z,54.23
2023-01-13T11:36:20.953Z,53.64
2023-01-13T11:38:54.579Z,54.36
2023-01-13T11:41:23.890Z,54.04
2023-01-13T11:44:23.396Z,53.77
2023-01-13T11:46:53.512Z,54.27
2023-01-13T11:49:30.811Z,54.21
2023-01-13T11:52:07.930Z,54.34
2023-01-13T11:54:55.270Z,54.08
2023-01-13T11:57:52.328Z,54.36
2023-01-13T12:01:02.719Z,54.46
2023-01-13T12:03:57.482Z,54.46
2023-01-13T12:06:37.797Z,54.50
2023-01-13T12:09:23.310Z,54.56
2023-01-13T12:12:22.638Z,54.62
2023-01-13T12:15:04.130Z,54.64
2023-01-13T12:17:51.931Z,54.71
2023-01-13T12:20:27.310Z,54.84
2023-01-13T12:22:58.267Z,54.75
2023-01-13T12:25:41.939Z,54.87
2023-01-13T12:28:21.072Z,55.05
2023-01-13T12:30:56.474Z,54.98
2023-01-13T12:33:38.176Z,55.10
2023-01-13T12:36:29.759Z,55.17
2023-01-13T12:39:06.575Z,55.23
2023-01-13T12:42:02.442Z,55.16
2023-01-13T12:44:28.835Z,55.25
2023-01-13T12:46:57.242Z,55.24
2023-01-13T12:49:25.140Z,55.07
2023-01-13T12:51:51.606Z,54.99
2023-01-13T12:54:50.128Z,54.65
2023-01-13T12:57:16.467Z,55.05
2023-01-13T12:59:48.885Z,54.76
2023-01-13T13:02:15.861Z,54.78
2023-01-13T13:04:51.908Z,54.46
2023-01-13T13:07:39.456Z,54.58
2023-01-13T13:10:29.995Z,54.54
2023-01-13T13:13:18.434Z,54.50
2023-01-13T13:15:48.972Z,54.32
2023-01-13T13:18:18.304Z,54.45
2023-01-13T13:21:04.455Z,54.24
2023-01-13T13:23:37.122Z,54.39
2023-01-13T13:26:16.643Z,54.71
2023-01-13T13:29:24.078Z,54.54
2023-01-13T13:31:56.761Z,54.50
2023-01-13T13:34:45.052Z,54.35
2023-01-13T13:37:23.532Z,54.48
2023-01-13T13:40:08.509Z,54.58
2023-01-13T13:43:01.931Z,54.90
2023-01-13T13:45:47.595Z,54.79
2023-01-13T13:48:30.947Z,54.88
2023-01-13T13:51:04.037Z,54.89
2023-01-13T13:53:42.278Z,54.67
2023-01-13T13:56:26.196Z,54.65
2023-01-13T13:58:53.329Z,54.63
2023-01-13T14:01:26.827Z,54.54
2023-01-13T14:04:25.896Z,54.68
2023-01-13T14:07:00.456Z,54.45
2023-01-13T14:09:44.378Z,54.44
2023-01-13T14:12:26.289Z,54.49
2023-01-13T14:14:55.825Z,54.60
2023-01-13T14:17:28.927Z,54.35
2023-01-13T14:20:07.766Z,54.85
2023-01-13T14:22:34.612Z,55.08
2023-01-13T14:25:01.902Z,54.84
2023-01-13T14:27:29.968Z,54.71
2023-01-13T14:29:59.558Z,55.14
2023-01-13T14:32:37.228Z,54.99
2023-01-13T14:35:07.683Z,55.06
2023-01-13T14:37:37.668Z,54.96
2023-01-13T14:40:05.112Z,54.82
2023-01-13T14:42:35.174Z,55.08
2023-01-13T14:45:02.538Z,55.31
2023-01-13T14:47:33.600Z,55.16
2023-01-13T14:50:07.498Z,54.99
2023-01-13T14:52:47.768Z,55.47
2023-01-13T14:55:36.329Z,55.15
2023-01-13T14:58:25.188Z,55.15
2023-01-13T15:01:12.600Z,55.44
2023-01-13T15:03:42.671Z,55.45
2023-01-13T15:06:29.485Z,55.12
2023-01-13T15:08:55.937Z,55.27
2023-01-13T15:11:28.590Z,55.34
2023-01-13T15:14:03.663Z,55.36
2023-01-13T15:16:33.794Z,55.73
2023-01-13T15:19:01.100Z,55.41
2023-01-13T15:21:27.508Z,55.32
2023-01-13T15:23:54.025Z,55.44
2023-01-13T15:26:28.835Z,55.60
2023-01-13T15:28:57.489Z,55.83
2023-01-13T15:31:24.850Z,55.61
2023-01-13T15:33:51.439Z,55.39
2023-01-13T15:36:27.305Z,55.44
2023-01-13T15:38:53.860Z,55.73
2023-01-13T15:41:39.258Z,55.69
2023-01-13T15:44:24.092Z,55.26
2023-01-13T15:46:51.875Z,55.32
2023-01-13T15:49:44.851Z,55.21
2023-01-13T15:52:22.058Z,55.39
2023-01-13T15:54:49.319Z,55.77
2023-01-13T15:57:22.459Z,55.66
2023-01-13T15:59:49.764Z,55.76
2023-01-13T16:02:18.222Z,55.91
2023-01-13T16:04:45.344Z,55.88
2023-01-13T16:07:15.846Z,56.03
2023-01-13T16:09:42.830Z,56.04
2023-01-13T16:12:09.305Z,56.12
2023-01-13T16:14:35.714Z,56.48
2023-01-13T16:17:03.363Z,56.45
2023-01-13T16:19:29.828Z,56.41
2023-01-13T16:21:58.788Z,56.79
2023-01-13T16:24:25.150Z,56.62
2023-01-13T16:26:51.584Z,56.96
2023-01-13T16:29:18.155Z,56.76
2023-01-13T16:31:44.551Z,56.50
2023-01-13T16:34:11.027Z,56.82
2023-01-13T16:36:37.559Z,56.61
2023-01-13T16:39:05.360Z,56.48
2023-01-13T16:41:33.472Z,56.64
2023-01-13T16:44:05.817Z,56.61
2023-01-13T16:46:32.256Z,56.71
2023-01-13T16:49:03.168Z,56.61
2023-01-13T16:51:29.618Z,56.67
2023-01-13T16:53:56.438Z,56.56
2023-01-13T16:56:28.450Z,56.48
2023-01-13T16:58:57.110Z,56.27
2023-01-13T17:01:44.669Z,56.19
2023-01-13T17:04:16.759Z,56.31
2023-01-13T17:07:02.582Z,56.33
2023-01-13T17:09:30.266Z,56.47
2023-01-13T17:11:57.340Z,56.49
2023-01-13T17:14:24.882Z,56.51
2023-01-13T17:16:53.581Z,56.45
2023-01-13T17:19:22.854Z,56.45
2023-01-13T17:21:51.078Z,56.72
2023-01-13T17:24:18.354Z,56.63
2023-01-13T17:26:48.919Z,56.65
2023-01-13T17:29:22.024Z,56.68
2023-01-13T17:31:49.531Z,56.72
2023-01-13T17:34:15.960Z,56.35
2023-01-13T17:36:45.186Z,56.81
2023-01-13T17:39:26.432Z,56.92
2023-01-13T17:41:55.933Z,56.92
2023-01-13T17:44:23.549Z,56.92
2023-01-13T17:46:50.675Z,56.85
2023-01-13T17:49:19.487Z,56.73
2023-01-13T17:51:50.969Z,56.82
2023-01-13T17:54:18.146Z,56.82
2023-01-13T17:56:44.722Z,56.93
2023-01-13T17:59:13.062Z,56.71
2023-01-13T18:01:40.185Z,57.01
2023-01-13T18:04:07.726Z,56.79
2023-01-13T18:06:34.200Z,56.70
2023-01-13T18:09:08.144Z,56.60
2023-01-13T18:11:36.104Z,56.83
2023-01-13T18:14:03.497Z,56.75
2023-01-13T18:16:40.677Z,56.87
2023-01-13T18:19:29.971Z,56.84
2023-01-13T18:22:14.972Z,57.07
2023-01-13T18:25:06.325Z,56.78
2023-01-13T18:27:36.354Z,56.80
2023-01-13T18:30:04.672Z,56.82
2023-01-13T18:32:33.656Z,57.09
2023-01-13T18:35:06.439Z,56.45
2023-01-13T18:37:35.780Z,56.77
2023-01-13T18:40:02.624Z,56.64
2023-01-13T18:42:50.509Z,56.82
2023-01-13T18:45:18.808Z,56.65
2023-01-13T18:47:45.556Z,56.57
2023-01-13T18:50:13.620Z,57.13
2023-01-13T18:52:40.779Z,56.83
2023-01-13T18:55:07.421Z,56.80
2023-01-13T18:57:37.409Z,56.77
2023-01-13T19:00:04.178Z,56.70
2023-01-13T19:02:31.533Z,56.41
2023-01-13T19:04:57.910Z,56.67
2023-01-13T19:07:28.208Z,56.69
2023-01-13T19:09:55.934Z,56.92
2023-01-13T19:12:30.872Z,56.80
2023-01-13T19:14:58.443Z,57.05
2023-01-13T19:17:26.831Z,56.86
2023-01-13T19:19:55.786Z,57.14
2023-01-13T19:22:32.548Z,56.99
2023-01-13T19:25:00.083Z,56.90
2023-01-13T19:27:30.279Z,56.93
2023-01-13T19:30:00.742Z,57.28
2023-01-13T19:32:30.564Z,57.44
2023-01-13T19:34:59.367Z,57.33
2023-01-13T19:37:30.037Z,57.31
2023-01-13T19:39:58.121Z,57.39
2023-01-13T19:42:43.171Z,57.55
2023-01-13T19:45:30.811Z,57.57
2023-01-13T19:48:00.749Z,57.79
2023-01-13T19:50:27.742Z,57.86
2023-01-13T19:52:54.249Z,57.96
2023-01-13T19:55:20.670Z,58.03
2023-01-13T19:57:47.458Z,57.96
2023-01-13T20:00:18.238Z,58.07
2023-01-13T20:02:49.069Z,57.90
2023-01-13T20:05:20.919Z,58.06
2023-01-13T20:07:48.699Z,58.23
2023-01-13T20:10:16.188Z,58.42
2023-01-13T20:12:42.635Z,58.07
2023-01-13T20:15:09.790Z,58.29
2023-01-13T20:17:36.311Z,58.24
2023-01-13T20:20:04.046Z,58.55
2023-01-13T20:22:30.442Z,58.25
2023-01-13T20:24:56.858Z,58.37
2023-01-13T20:27:24.000Z,58.47
2023-01-13T20:29:51.523Z,58.46
2023-01-13T20:32:18.084Z,58.59
2023-01-13T20:34:44.536Z,58.52
2023-01-13T20:37:10.958Z,58.53
2023-01-13T20:39:37.400Z,58.20
2023-01-13T20:42:22.505Z,58.22
2023-01-13T20:44:49.533Z,58.62
2023-01-13T20:47:16.338Z,58.80
2023-01-13T20:49:42.728Z,59.00
2023-01-13T20:52:09.627Z,58.85
2023-01-13T20:54:40.648Z,58.85
2023-01-13T20:57:09.817Z,58.89
2023-01-13T20:59:37.673Z,58.93
2023-01-13T21:02:05.865Z,58.86
2023-01-13T21:04:32.273Z,58.86
2023-01-13T21:06:58.668Z,59.05
2023-01-13T21:09:26.481Z,58.97
2023-01-13T21:12:12.228Z,58.78
2023-01-13T21:14:57.018Z,59.13
2023-01-13T21:17:42.399Z,59.04
2023-01-13T21:20:11.333Z,59.04
2023-01-13T21:22:38.883Z,59.21
2023-01-13T21:25:06.119Z,59.54
2023-01-13T21:27:32.834Z,59.32
2023-01-13T21:29:59.192Z,59.44
2023-01-13T21:32:25.661Z,59.33
2023-01-13T21:34:52.048Z,59.36
2023-01-13T21:37:18.594Z,59.47
2023-01-13T21:39:45.388Z,59.54
2023-01-13T21:42:33.942Z,59.36
2023-01-13T21:45:18.860Z,59.33
2023-01-13T21:47:48.419Z,59.49
2023-01-13T21:50:23.462Z,59.18
2023-01-13T21:52:52.534Z,59.32
2023-01-13T21:55:20.838Z,59.57
2023-01-13T21:57:48.422Z,59.20
2023-01-13T22:00:16.625Z,59.38
2023-01-13T22:02:44.003Z,59.51
2023-01-13T22:05:12.190Z,59.29
2023-01-13T22:07:39.716Z,59.42
2023-01-13T22:10:09.030Z,59.53
2023-01-13T22:12:36.105Z,59.48
2023-01-13T22:15:02.983Z,59.67
2023-01-13T22:17:31.487Z,59.61
2023-01-13T22:19:58.875Z,59.57
2023-01-13T22:22:26.215Z,59.68
2023-01-13T22:24:53.556Z,59.68
2023-01-13T22:27:25.170Z,59.73
2023-01-13T22:29:52.767Z,59.89
2023-01-13T22:32:20.637Z,59.79
2023-01-13T22:34:47.915Z,60.04
2023-01-13T22:37:14.751Z,60.11
2023-01-13T22:39:41.187Z,59.75
2023-01-13T22:42:07.781Z,59.99
2023-01-13T22:44:34.288Z,60.44
2023-01-13T22:47:00.981Z,60.05
2023-01-13T22:49:27.447Z,60.03
2023-01-13T22:51:54.113Z,60.24
2023-01-13T22:54:20.624Z,60.18
2023-01-13T22:56:47.059Z,60.07
2023-01-13T22:59:14.489Z,60.18
2023-01-13T23:01:42.127Z,60.22
2023-01-13T23:04:11.737Z,60.36
2023-01-13T23:06:38.396Z,60.47
2023-01-13T23:09:04.814Z,60.11
2023-01-13T23:11:31.287Z,60.41
2023-01-13T23:14:02.694Z,60.60
2023-01-13T23:16:30.759Z,60.42
2023-01-13T23:18:57.203Z,60.47
2023-01-13T23:21:26.556Z,60.35
2023-01-13T23:23:54.284Z,60.47
2023-01-13T23:26:21.594Z,60.47
2023-01-13T23:28:48.465Z,60.40
2023-01-13T23:31:18.496Z,60.62
2023-01-13T23:33:44.922Z,60.31
2023-01-13T23:36:17.333Z,60.50
2023-01-13T23:38:44.507Z,60.57
2023-01-13T23:41:13.922Z,60.44
2023-01-13T23:43:40.784Z,60.65
2023-01-13T23:46:13.422Z,60.46
2023-01-13T23:48:40.255Z,60.73
2023-01-13T23:51:10.533Z,60.65
2023-01-13T23:53:43.024Z,60.85
2023-01-13T23:56:16.431Z,60.68
2023-01-13T23:58:43.508Z,60.68
